Time;durP1;ratioP1;P1;durP2;ratioP2;P2;SDS_P1;SDS_P2;PMS_P1;PMS_P2;Temp;Humidity;BMP_temperature;BMP_pressure;BME280_temperature;BME280_humidity;BME280_pressure;Samples;Min_cycle;Max_cycle;Signal;HPM_P1;HPM_P2
2022/03/10 00:00:10;;;;;;;27.00;18.00;;;2.00;55.20;;;;;;5068449;28;20199;-85
2022/03/10 00:02:36;;;;;;;31.80;16.73;;;1.30;54.80;;;;;;5068361;28;20548;-86
2022/03/10 00:05:04;;;;;;;35.72;17.70;;;1.40;68.80;;;;;;5067985;28;20206;-85
2022/03/10 00:07:32;;;;;;;26.02;17.48;;;1.20;55.10;;;;;;5067374;28;20622;-86
2022/03/10 00:09:59;;;;;;;29.55;17.95;;;1.20;55.10;;;;;;5068377;28;20211;-85
2022/03/10 00:12:26;;;;;;;37.50;20.05;;;1.20;55.20;;;;;;5062355;28;20250;-86
2022/03/10 00:14:53;;;;;;;38.53;20.35;;;;;;;;;;5068324;28;20249;-86
2022/03/10 00:17:20;;;;;;;43.22;20.90;;;;;;;;;;5068003;28;20298;-85
2022/03/10 00:19:47;;;;;;;33.42;18.42;;;1.20;55.00;;;;;;5067929;28;20257;-85
2022/03/10 00:22:14;;;;;;;33.85;18.60;;;;;;;;;;5068301;28;20211;-86
2022/03/10 00:24:43;;;;;;;28.48;17.85;;;1.10;55.30;;;;;;5063045;28;20227;-85
2022/03/10 00:27:10;;;;;;;41.03;19.48;;;;;;;;;;5068852;28;20212;-84
2022/03/10 00:29:37;;;;;;;39.95;20.00;;;;;;;;;;5071157;28;20203;-85
2022/03/10 00:32:05;;;;;;;35.60;20.40;;;1.10;55.80;;;;;;5071307;28;20203;-85
2022/03/10 00:34:32;;;;;;;33.13;19.95;;;1.10;56.50;;;;;;5068012;28;20722;-85
2022/03/10 00:36:59;;;;;;;30.60;18.48;;;;;;;;;;5067168;28;20207;-84
2022/03/10 00:39:26;;;;;;;30.58;18.80;;;1.00;55.80;;;;;;5067804;28;20207;-85
2022/03/10 00:41:54;;;;;;;32.28;18.58;;;1.00;56.70;;;;;;5048710;28;20330;-85
2022/03/10 00:44:21;;;;;;;35.17;19.33;;;1.00;56.90;;;;;;5065450;28;20242;-85
2022/03/10 00:46:48;;;;;;;35.97;20.77;;;;;;;;;;5066974;28;20199;-85
2022/03/10 00:49:15;;;;;;;37.40;20.00;;;;;;;;;;5067495;28;20199;-86
2022/03/10 00:51:44;;;;;;;31.42;19.08;;;;;;;;;;5067624;28;20280;-85
2022/03/10 00:54:11;;;;;;;30.95;19.02;;;;;;;;;;5067567;28;20685;-85
2022/03/10 00:56:38;;;;;;;29.63;17.00;;;1.00;56.70;;;;;;5067406;28;20302;-85
2022/03/10 00:59:06;;;;;;;32.30;19.00;;;0.90;56.80;;;;;;5067499;28;20231;-85
2022/03/10 01:01:34;;;;;;;40.85;19.67;;;;;;;;;;5067087;28;20231;-85
2022/03/10 01:04:00;;;;;;;37.55;23.58;;;0.90;57.10;;;;;;5059764;28;20257;-85
2022/03/10 01:06:28;;;;;;;46.55;22.05;;;;;;;;;;5060945;28;20276;-86
2022/03/10 01:08:56;;;;;;;37.95;25.67;;;;;;;;;;5067539;28;20286;-85
2022/03/10 01:11:24;;;;;;;37.17;22.10;;;;;;;;;;5067551;28;20661;-86
2022/03/10 01:13:52;;;;;;;33.50;19.25;;;;;;;;;;5067186;28;20529;-85
2022/03/10 01:16:21;;;;;;;31.58;20.30;;;0.90;56.50;;;;;;5067061;28;20204;-85
2022/03/10 01:18:48;;;;;;;32.97;19.98;;;0.80;72.00;;;;;;5067264;28;20204;-85
2022/03/10 01:21:16;;;;;;;40.63;23.48;;;;;;;;;;5066951;28;20231;-85
2022/03/10 01:23:44;;;;;;;36.78;21.00;;;0.70;56.80;;;;;;5065132;28;20330;-85
2022/03/10 01:26:12;;;;;;;32.97;21.95;;;0.70;57.20;;;;;;5053809;28;20219;-85
2022/03/10 01:28:41;;;;;;;38.10;21.50;;;;;;;;;;5064505;28;20192;-85
2022/03/10 01:31:08;;;;;;;30.95;20.77;;;;;;;;;;5067136;28;20552;-85
2022/03/10 01:33:36;;;;;;;28.33;18.77;;;0.70;56.70;;;;;;5067531;28;20674;-84
2022/03/10 01:36:03;;;;;;;29.98;18.20;;;0.80;57.10;;;;;;5070668;28;20214;-85
2022/03/10 01:38:30;;;;;;;29.15;17.23;;;0.90;56.70;;;;;;5070307;28;20196;-85
2022/03/10 01:40:57;;;;;;;25.00;16.75;;;1.00;56.30;;;;;;5070312;28;20253;-84
2022/03/10 01:43:25;;;;;;;28.42;17.35;;;;;;;;;;5070328;28;20223;-85
2022/03/10 01:45:52;;;;;;;35.58;17.27;;;;;;;;;;5070922;28;20280;-85
2022/03/10 01:48:19;;;;;;;23.80;16.10;;;1.00;55.80;;;;;;5070600;28;20210;-85
2022/03/10 01:50:47;;;;;;;30.15;17.13;;;1.00;56.50;;;;;;5069925;28;20273;-84
2022/03/10 01:53:15;;;;;;;23.25;16.10;;;0.90;56.60;;;;;;5070564;28;20199;-85
2022/03/10 01:55:43;;;;;;;29.83;14.75;;;0.90;56.90;;;;;;5070002;28;20248;-85
2022/03/10 01:58:11;;;;;;;25.00;15.15;;;0.80;57.30;;;;;;5070043;28;20602;-85
2022/03/10 02:00:38;;;;;;;29.38;16.92;;;0.80;57.30;;;;;;5069831;28;20234;-85
2022/03/10 02:03:05;;;;;;;24.55;16.00;;;;;;;;;;5063427;28;20673;-85
2022/03/10 02:05:33;;;;;;;25.88;16.17;;;0.80;56.90;;;;;;5070340;28;20559;-84
2022/03/10 02:10:48;;;;;;;26.27;15.73;;;;;;;;;;5070343;28;20570;-85
2022/03/10 02:13:16;;;;;;;28.38;18.17;;;0.70;56.40;;;;;;5070494;28;20199;-85
2022/03/10 02:18:29;;;;;;;23.52;16.08;;;0.50;57.40;;;;;;5068810;28;20194;-84
2022/03/10 02:20:56;;;;;;;30.90;17.38;;;0.40;57.60;;;;;;5070290;28;20610;-85
2022/03/10 02:23:25;;;;;;;30.27;18.67;;;0.40;57.40;;;;;;5069345;28;20625;-84
2022/03/10 02:25:52;;;;;;;30.65;16.60;;;0.20;75.50;;;;;;5064860;28;20223;-84
2022/03/10 02:28:20;;;;;;;25.75;15.65;;;0.40;75.90;;;;;;5069562;28;20223;-85
2022/03/10 02:30:47;;;;;;;28.83;16.75;;;0.40;77.00;;;;;;5069408;28;20195;-84
2022/03/10 02:33:14;;;;;;;22.10;16.15;;;0.40;57.80;;;;;;5069990;28;20455;-85
2022/03/10 02:35:43;;;;;;;23.08;15.90;;;0.30;75.90;;;;;;5065543;28;20221;-84
2022/03/10 02:38:10;;;;;;;25.00;15.98;;;;;;;;;;5069679;28;20562;-85
2022/03/10 02:40:39;;;;;;;29.45;14.23;;;0.40;57.40;;;;;;5060923;28;20246;-84
2022/03/10 02:43:06;;;;;;;24.02;16.10;;;;;;;;;;5049984;28;20231;-85
2022/03/10 02:45:34;;;;;;;21.67;14.30;;;0.30;76.10;;;;;;5068185;28;20204;-84
2022/03/10 02:48:01;;;;;;;26.50;15.98;;;;;;;;;;5068864;28;20566;-85
2022/03/10 02:50:28;;;;;;;24.30;15.25;;;;;;;;;;5069388;28;20199;-85
2022/03/10 02:52:55;;;;;;;20.75;13.57;;;;;;;;;;5069597;28;20252;-85
2022/03/10 02:55:22;;;;;;;19.95;12.98;;;;;;;;;;5069514;28;20597;-85
2022/03/10 02:57:51;;;;;;;32.67;16.05;;;0.20;58.10;;;;;;5062317;28;20346;-85
2022/03/10 03:00:18;;;;;;;29.55;15.68;;;0.20;77.70;;;;;;5068376;28;20202;-85
2022/03/10 03:02:46;;;;;;;27.58;16.75;;;1.10;79.20;;;;;;5066509;28;20231;-85
2022/03/10 03:05:14;;;;;;;25.08;14.85;;;;;;;;;;5068641;28;20583;-85
2022/03/10 03:07:42;;;;;;;24.73;15.48;;;0.20;57.90;;;;;;5068774;28;20281;-85
2022/03/10 03:10:10;;;;;;;24.25;15.57;;;0.10;71.90;;;;;;5068863;28;20230;-85
2022/03/10 03:12:44;;;;;;;22.77;16.20;;;0.50;69.90;;;;;;5069013;28;20200;-84
2022/03/10 03:15:13;;;;;;;21.15;15.75;;;0.30;79.30;;;;;;5069847;28;20206;-86
2022/03/10 03:17:40;;;;;;;27.48;15.18;;;0.20;79.00;;;;;;5068157;28;20203;-85
2022/03/10 03:20:09;;;;;;;28.35;15.73;;;0.20;58.20;;;;;;5069301;28;20207;-85
2022/03/10 03:22:36;;;;;;;18.52;14.15;;;;;;;;;;5069314;28;20663;-85
2022/03/10 03:25:03;;;;;;;22.98;14.27;;;0.70;78.30;;;;;;5068105;28;20252;-85
2022/03/10 03:27:31;;;;;;;23.58;14.85;;;;;;;;;;5064938;28;20243;-84
2022/03/10 03:29:58;;;;;;;20.30;14.10;;;;;;;;;;5066660;28;20253;-84
2022/03/10 03:32:26;;;;;;;21.33;14.93;;;0.20;58.10;;;;;;5069043;28;20196;-84
2022/03/10 03:34:54;;;;;;;21.42;13.40;;;;;;;;;;5068288;28;20215;-85
2022/03/10 03:37:21;;;;;;;25.95;16.02;;;;;;;;;;5068096;28;20315;-85
2022/03/10 03:39:48;;;;;;;22.92;14.18;;;;;;;;;;5068667;28;20211;-85
2022/03/10 03:42:15;;;;;;;24.63;15.48;;;0.50;80.20;;;;;;5068785;28;20211;-85
2022/03/10 03:44:42;;;;;;;22.88;13.95;;;0.10;72.60;;;;;;5068124;28;20282;-84
2022/03/10 03:47:09;;;;;;;21.00;14.27;;;;;;;;;;5068264;28;20277;-85
2022/03/10 03:49:37;;;;;;;20.70;14.73;;;0.10;79.10;;;;;;5068706;28;20210;-85
2022/03/10 03:52:05;;;;;;;23.90;15.48;;;0.10;72.20;;;;;;5064590;28;20238;-85
2022/03/10 03:54:32;;;;;;;24.85;14.73;;;;;;;;;;5065741;28;20543;-85
2022/03/10 03:56:59;;;;;;;17.15;13.00;;;;;;;;;;5047814;28;20215;-85
2022/03/10 03:59:26;;;;;;;28.38;15.85;;;;;;;;;;5059681;28;20295;-85
2022/03/10 04:01:53;;;;;;;23.63;14.65;;;-0.10;71.90;;;;;;5068597;28;20290;-85
2022/03/10 04:04:22;;;;;;;17.52;13.32;;;0.00;71.70;;;;;;5063383;28;20219;-85
2022/03/10 04:06:51;;;;;;;19.90;14.20;;;0.60;79.40;;;;;;5067711;28;20250;-84
2022/03/10 04:09:17;;;;;;;24.75;14.00;;;0.00;79.90;;;;;;5068311;28;20207;-85
2022/03/10 04:11:45;;;;;;;24.33;14.10;;;-0.10;70.90;;;;;;5068981;28;20290;-85
2022/03/10 04:14:12;;;;;;;20.45;14.82;;;;;;;;;;5069019;28;20205;-84
2022/03/10 04:16:40;;;;;;;19.13;13.13;;;;;;;;;;5072431;28;20260;-84
2022/03/10 04:19:07;;;;;;;24.23;13.98;;;;;;;;;;5074157;28;20203;-84
2022/03/10 04:21:34;;;;;;;20.42;14.85;;;-1.20;64.50;;;;;;5069499;28;20199;-85
2022/03/10 04:24:02;;;;;;;25.50;14.90;;;-0.30;72.70;;;;;;5067246;28;20249;-85
2022/03/10 04:26:29;;;;;;;25.30;13.90;;;-0.10;78.50;;;;;;5067424;28;20207;-85
2022/03/10 04:28:56;;;;;;;21.10;12.55;;;-0.10;75.00;;;;;;5063132;28;20306;-84
2022/03/10 04:31:23;;;;;;;21.08;14.02;;;;;;;;;;5068191;28;20227;-85
2022/03/10 04:33:51;;;;;;;24.88;14.85;;;;;;;;;;5067752;28;20322;-85
2022/03/10 04:36:18;;;;;;;26.40;13.82;;;-0.10;59.00;;;;;;5067365;28;20215;-85
2022/03/10 04:38:45;;;;;;;21.08;15.25;;;0.50;77.80;;;;;;5067922;28;20231;-85
2022/03/10 04:41:13;;;;;;;24.00;14.20;;;-2.60;75.30;;;;;;5067300;28;20203;-84
2022/03/10 04:43:40;;;;;;;22.42;15.18;;;-0.10;77.30;;;;;;5067492;28;20292;-85
2022/03/10 04:46:08;;;;;;;21.45;14.43;;;;;;;;;;5066619;28;20296;-85
2022/03/10 04:48:35;;;;;;;25.02;14.18;;;;;;;;;;5060761;28;20226;-84
2022/03/10 04:51:02;;;;;;;27.17;15.00;;;;;;;;;;5067653;28;20286;-85
2022/03/10 04:53:29;;;;;;;30.05;15.20;;;;;;;;;;5068038;28;20269;-85
2022/03/10 04:55:56;;;;;;;26.67;16.17;;;0.20;78.50;;;;;;5067316;28;20210;-85
2022/03/10 04:58:24;;;;;;;24.38;14.63;;;0.00;73.80;;;;;;5067341;28;20225;-84
2022/03/10 05:00:51;;;;;;;22.02;13.18;;;;;;;;;;5067490;28;20207;-85
2022/03/10 05:03:19;;;;;;;22.45;12.95;;;;;;;;;;5067071;28;20242;-85
2022/03/10 05:05:47;;;;;;;21.95;13.55;;;-0.10;81.20;;;;;;5067003;28;20285;-84
2022/03/10 05:08:14;;;;;;;29.00;16.77;;;-0.10;73.40;;;;;;5066990;28;20534;-85
2022/03/10 05:10:41;;;;;;;22.08;14.15;;;0.50;81.60;;;;;;5071407;28;20199;-85
2022/03/10 05:13:08;;;;;;;22.63;15.00;;;-0.20;81.90;;;;;;5071306;28;20261;-85
2022/03/10 05:15:36;;;;;;;20.00;14.85;;;-0.10;81.90;;;;;;5070091;28;20558;-84
2022/03/10 05:18:05;;;;;;;18.60;12.48;;;-0.20;73.10;;;;;;5070664;28;20289;-85
2022/03/10 05:20:32;;;;;;;20.90;14.88;;;-0.30;82.10;;;;;;5052905;28;20215;-84
2022/03/10 05:23:01;;;;;;;25.90;16.10;;;-0.20;60.40;;;;;;5071491;28;20267;-84
2022/03/10 05:25:33;;;;;;;23.10;14.00;;;-0.20;59.80;;;;;;5070385;28;20223;-84
2022/03/10 05:28:00;;;;;;;30.92;16.40;;;;;;;;;;5070984;28;20211;-85
2022/03/10 05:30:27;;;;;;;25.85;16.00;;;-0.70;83.70;;;;;;5066741;28;20231;-84
2022/03/10 05:32:56;;;;;;;20.15;13.70;;;-0.10;83.70;;;;;;5066004;28;20223;-84
2022/03/10 05:35:23;;;;;;;29.15;15.10;;;-0.10;81.80;;;;;;5071184;28;20207;-84
2022/03/10 05:37:50;;;;;;;23.33;16.17;;;;;;;;;;5070701;28;20646;-87
2022/03/10 05:40:19;;;;;;;28.80;17.45;;;-0.10;59.80;;;;;;5070979;28;20199;-87
2022/03/10 05:42:47;;;;;;;25.48;19.75;;;0.00;59.90;;;;;;5066485;28;20739;-87
2022/03/10 05:45:19;;;;;;;27.55;17.67;;;0.00;59.70;;;;;;5066310;28;20199;-86
2022/03/10 05:47:47;;;;;;;31.70;18.08;;;;;;;;;;5070705;28;20470;-87
2022/03/10 05:50:16;;;;;;;26.50;15.90;;;0.00;59.60;;;;;;5070564;28;20663;-87
2022/03/10 05:52:45;;;;;;;24.80;16.70;;;;;;;;;;5071101;28;20264;-87
2022/03/10 05:55:12;;;;;;;33.55;15.43;;;;;;;;;;5070538;28;20211;-86
2022/03/10 05:57:39;;;;;;;21.00;14.65;;;;;;;;;;5070318;28;20204;-87
2022/03/10 06:00:08;;;;;;;33.50;18.48;;;-0.10;59.80;;;;;;5071047;28;20234;-87
2022/03/10 06:02:36;;;;;;;27.55;17.42;;;;;;;;;;5070990;28;20249;-87
2022/03/10 06:05:04;;;;;;;29.45;15.02;;;-0.20;59.90;;;;;;5069949;28;20720;-87
2022/03/10 06:07:33;;;;;;;29.77;19.70;;;;;;;;;;5068799;28;21284;-86
2022/03/10 06:10:00;;;;;;;25.73;17.67;;;;;;;;;;5069978;28;20614;-86
2022/03/10 06:12:28;;;;;;;28.63;16.40;;;-0.10;60.40;;;;;;5070859;28;20231;-87
2022/03/10 06:14:56;;;;;;;29.92;18.45;;;;;;;;;;5069665;28;20620;-87
2022/03/10 06:17:23;;;;;;;26.02;16.98;;;;;;;;;;5069585;28;20233;-86
2022/03/10 06:19:50;;;;;;;25.05;16.95;;;;;;;;;;5069699;28;20203;-87
2022/03/10 06:22:18;;;;;;;22.33;16.73;;;0.00;60.50;;;;;;5069565;28;20207;-86
2022/03/10 06:24:47;;;;;;;22.85;16.50;;;-0.10;60.80;;;;;;5069391;28;20223;-87
2022/03/10 06:27:14;;;;;;;26.45;17.58;;;;;;;;;;5069453;28;20228;-87
2022/03/10 06:29:41;;;;;;;31.95;18.20;;;;;;;;;;5069726;28;20192;-85
2022/03/10 06:32:08;;;;;;;29.30;17.75;;;;;;;;;;5065573;28;20231;-87
2022/03/10 06:34:37;;;;;;;29.73;18.15;;;;;;;;;;5070810;28;20210;-86
2022/03/10 06:37:06;;;;;;;27.90;17.13;;;0.00;84.80;;;;;;5067766;28;20204;-86
2022/03/10 06:39:34;;;;;;;35.40;19.85;;;;;;;;;;5069828;28;20282;-86
2022/03/10 06:42:03;;;;;;;31.02;21.08;;;0.20;61.80;;;;;;5051218;28;20728;-86
2022/03/10 06:44:30;;;;;;;33.08;20.08;;;;;;;;;;5057775;28;20223;-86
2022/03/10 06:46:57;;;;;;;26.30;17.50;;;;;;;;;;5057470;28;20228;-86
2022/03/10 06:49:25;;;;;;;37.80;17.42;;;;;;;;;;5068723;28;20207;-86
2022/03/10 06:51:52;;;;;;;31.85;17.45;;;;;;;;;;5069004;28;20881;-85
2022/03/10 06:54:19;;;;;;;26.48;17.40;;;;;;;;;;5069435;28;20624;-86
2022/03/10 06:56:47;;;;;;;28.90;17.45;;;;;;;;;;5069242;28;20203;-86
2022/03/10 06:59:15;;;;;;;23.40;16.55;;;0.70;60.30;;;;;;5069638;28;20242;-86
2022/03/10 07:01:42;;;;;;;29.25;16.10;;;;;;;;;;5069358;28;20983;-86
2022/03/10 07:04:09;;;;;;;17.83;14.18;;;;;;;;;;5055185;28;20212;-86
2022/03/10 07:06:39;;;;;;;25.33;16.33;;;;;;;;;;5049268;28;20204;-86
2022/03/10 07:09:06;;;;;;;31.27;15.55;;;;;;;;;;5049682;28;20208;-86
2022/03/10 07:11:40;;;;;;;24.05;14.40;;;1.10;59.70;;;;;;5050033;28;20258;-87
2022/03/10 07:14:07;;;;;;;27.30;16.02;;;;;;;;;;5049934;28;20290;-87
2022/03/10 07:16:35;;;;;;;24.98;17.83;;;1.30;59.80;;;;;;5049387;28;20269;-87
2022/03/10 07:19:03;;;;;;;26.55;16.33;;;;;;;;;;5049579;28;20215;-86
2022/03/10 07:21:30;;;;;;;23.52;16.15;;;;;;;;;;5049980;28;20302;-87
2022/03/10 07:23:57;;;;;;;19.25;13.93;;;1.70;59.70;;;;;;5049313;28;20227;-86
2022/03/10 07:26:24;;;;;;;23.30;14.43;;;1.90;81.50;;;;;;5048863;28;20196;-87
2022/03/10 07:28:52;;;;;;;25.80;14.95;;;;;;;;;;5060855;28;20234;-86
2022/03/10 07:31:19;;;;;;;20.63;14.23;;;2.00;59.30;;;;;;5066885;28;20226;-86
2022/03/10 07:33:47;;;;;;;19.02;12.60;;;2.10;59.00;;;;;;5064059;28;20705;-86
2022/03/10 07:36:14;;;;;;;24.67;14.70;;;2.20;59.40;;;;;;5068138;28;20219;-86
2022/03/10 07:38:41;;;;;;;27.08;13.43;;;2.70;70.80;;;;;;5068436;28;20207;-86
2022/03/10 07:41:08;;;;;;;19.85;12.98;;;2.50;69.40;;;;;;5068293;28;20200;-87
2022/03/10 07:43:35;;;;;;;25.15;13.13;;;2.80;68.00;;;;;;5067714;28;20510;-86
2022/03/10 07:46:04;;;;;;;15.25;12.32;;;2.90;74.10;;;;;;5068948;28;20230;-86
2022/03/10 07:48:31;;;;;;;17.25;12.05;;;2.80;57.00;;;;;;5068089;28;20198;-87
2022/03/10 07:51:00;;;;;;;17.52;11.40;;;3.60;77.70;;;;;;5068558;28;20203;-86
2022/03/10 07:53:27;;;;;;;21.40;11.75;;;3.20;57.60;;;;;;5068450;28;20199;-87
2022/03/10 07:56:01;;;;;;;24.30;11.55;;;3.50;57.20;;;;;;5067414;28;20223;-86
2022/03/10 07:58:29;;;;;;;18.83;12.55;;;;;;;;;;5068029;28;20657;-86
2022/03/10 08:00:57;;;;;;;16.35;11.50;;;3.60;57.20;;;;;;5068270;28;20290;-84
2022/03/10 08:03:25;;;;;;;21.90;11.52;;;4.60;75.50;;;;;;5066644;28;20249;-86
2022/03/10 08:05:54;;;;;;;16.55;9.77;;;4.20;74.60;;;;;;5071907;28;20219;-85
2022/03/10 08:08:23;;;;;;;16.23;9.57;;;4.50;64.10;;;;;;5069139;28;20249;-87
2022/03/10 08:10:50;;;;;;;14.65;9.02;;;4.40;55.80;;;;;;5067877;28;20211;-86
2022/03/10 08:13:18;;;;;;;16.63;9.07;;;5.50;56.10;;;;;;5067858;28;20214;-87
2022/03/10 08:15:45;;;;;;;16.98;9.85;;;6.20;56.30;;;;;;5068130;28;20200;-86
2022/03/10 08:18:13;;;;;;;13.02;9.15;;;5.60;61.90;;;;;;5068274;28;20603;-88
2022/03/10 08:20:41;;;;;;;18.48;10.48;;;5.10;54.50;;;;;;5068392;28;20203;-86
2022/03/10 08:23:09;;;;;;;16.95;11.88;;;5.60;53.60;;;;;;5067792;28;20210;-87
2022/03/10 08:25:37;;;;;;;12.10;10.32;;;5.80;53.00;;;;;;5067592;28;20227;-85
2022/03/10 08:28:05;;;;;;;15.80;11.38;;;5.80;53.00;;;;;;5067532;28;20238;-84
2022/03/10 08:30:32;;;;;;;20.02;11.13;;;5.90;52.90;;;;;;5067135;28;20261;-84
2022/03/10 08:32:59;;;;;;;13.45;11.02;;;7.20;53.30;;;;;;5066574;28;20246;-85
2022/03/10 08:35:26;;;;;;;15.48;10.68;;;6.20;52.00;;;;;;5067752;28;20211;-86
2022/03/10 08:37:53;;;;;;;16.10;9.50;;;6.40;51.60;;;;;;5066318;28;20222;-86
2022/03/10 08:40:20;;;;;;;15.48;8.93;;;6.50;51.70;;;;;;5061231;28;20249;-85
2022/03/10 08:42:50;;;;;;;18.55;9.75;;;6.60;51.70;;;;;;5049518;28;20204;-87
2022/03/10 08:45:17;;;;;;;11.85;8.45;;;6.70;51.30;;;;;;5071511;28;20231;-86
2022/03/10 08:47:45;;;;;;;21.13;9.65;;;6.80;50.90;;;;;;5071877;28;20230;-86
2022/03/10 08:50:12;;;;;;;15.70;10.68;;;7.00;51.20;;;;;;5071742;28;20203;-85
2022/03/10 08:52:40;;;;;;;19.05;9.93;;;7.00;50.80;;;;;;5071882;28;20223;-85
2022/03/10 08:55:08;;;;;;;13.10;10.40;;;7.30;59.50;;;;;;5071564;28;20284;-85
2022/03/10 08:57:36;;;;;;;18.35;10.70;;;7.20;62.80;;;;;;5071879;28;20256;-85
2022/03/10 09:00:05;;;;;;;14.05;9.82;;;7.20;51.00;;;;;;5071500;28;20202;-86
2022/03/10 09:02:32;;;;;;;18.02;10.10;;;7.30;51.30;;;;;;5071006;28;20223;-84
2022/03/10 09:04:59;;;;;;;13.20;10.48;;;7.60;62.70;;;;;;5070181;28;20211;-85
2022/03/10 09:07:26;;;;;;;12.00;8.60;;;7.50;51.20;;;;;;5071647;28;20673;-86
2022/03/10 09:09:53;;;;;;;12.77;8.82;;;7.70;51.50;;;;;;5071632;28;20288;-85
2022/03/10 09:12:20;;;;;;;14.68;10.25;;;7.90;52.20;;;;;;5071025;28;20214;-86
2022/03/10 09:14:47;;;;;;;10.77;8.27;;;8.00;62.60;;;;;;5071552;28;20229;-85
2022/03/10 09:17:16;;;;;;;14.90;9.35;;;9.00;52.30;;;;;;5071199;28;20231;-85
2022/03/10 09:19:43;;;;;;;12.43;8.68;;;9.50;51.60;;;;;;5071099;28;20244;-84
2022/03/10 09:22:10;;;;;;;16.55;9.48;;;;;;;;;;5071652;28;20249;-86
2022/03/10 09:24:37;;;;;;;14.13;9.32;;;8.40;50.20;;;;;;5070819;28;20217;-85
2022/03/10 09:27:05;;;;;;;13.80;10.02;;;8.50;50.70;;;;;;5071165;28;20223;-85
2022/03/10 09:29:32;;;;;;;13.57;9.77;;;8.50;50.30;;;;;;5071220;28;20207;-86
2022/03/10 09:32:02;;;;;;;11.23;9.10;;;8.70;50.10;;;;;;5070896;28;20535;-85
2022/03/10 09:34:30;;;;;;;30.73;10.23;;;8.70;49.20;;;;;;5069214;28;20231;-86
2022/03/10 09:36:57;;;;;;;13.48;8.32;;;8.70;56.50;;;;;;5071135;28;20207;-85
2022/03/10 09:39:24;;;;;;;16.95;9.40;;;8.80;48.60;;;;;;5070884;28;20254;-85
2022/03/10 09:41:51;;;;;;;12.98;9.38;;;8.90;49.10;;;;;;5054023;28;20664;-86
2022/03/10 09:44:19;;;;;;;14.23;9.88;;;9.00;48.30;;;;;;5070192;28;20236;-86
2022/03/10 09:46:50;;;;;;;15.50;8.48;;;9.20;47.90;;;;;;5070736;28;21046;-86
2022/03/10 09:49:17;;;;;;;11.90;8.02;;;;;;;;;;5070965;28;20233;-85
2022/03/10 09:51:48;;;;;;;10.77;7.40;;;9.30;47.80;;;;;;5070580;28;20231;-86
2022/03/10 09:54:15;;;;;;;12.55;9.25;;;9.30;47.20;;;;;;5070121;28;20204;-85
2022/03/10 09:56:44;;;;;;;12.32;9.57;;;9.40;47.40;;;;;;5070134;28;20738;-85
2022/03/10 09:59:12;;;;;;;13.25;7.45;;;9.60;47.40;;;;;;5070879;28;20291;-85
2022/03/10 10:01:39;;;;;;;12.35;8.77;;;9.50;53.70;;;;;;5069479;28;20591;-86
2022/03/10 10:04:06;;;;;;;14.17;9.10;;;9.70;53.10;;;;;;5070327;28;20623;-86
2022/03/10 10:06:51;;;;;;;9.13;6.63;;;9.70;47.20;;;;;;5070225;28;21598;-86
2022/03/10 10:09:21;;;;;;;8.63;6.37;;;9.80;57.30;;;;;;5070306;28;21042;-86
2022/03/10 10:11:48;;;;;;;9.33;6.60;;;10.00;50.90;;;;;;5070328;28;21176;-85
2022/03/10 10:14:36;;;;;;;10.03;6.83;;;10.10;45.90;;;;;;5070356;28;20631;-86
2022/03/10 10:17:03;;;;;;;6.40;5.60;;;10.20;45.50;;;;;;5070578;28;20639;-85
2022/03/10 10:19:33;;;;;;;8.67;6.10;;;10.20;45.30;;;;;;5070362;28;21159;-86
2022/03/10 10:22:11;;;;;;;11.37;7.20;;;10.30;45.20;;;;;;5069083;28;20996;-85
2022/03/10 10:24:40;;;;;;;10.53;6.63;;;10.40;45.40;;;;;;5070220;28;21225;-86
2022/03/10 10:27:15;;;;;;;7.40;6.20;;;10.30;45.40;;;;;;5070552;28;20688;-85
2022/03/10 10:29:53;;;;;;;9.50;6.13;;;10.50;45.00;;;;;;5070108;28;20646;-85
2022/03/10 10:32:30;;;;;;;11.00;6.60;;;10.60;45.30;;;;;;5069210;28;20625;-85
2022/03/10 10:35:07;;;;;;;8.47;5.50;;;10.60;44.70;;;;;;5068665;28;20713;-85
2022/03/10 10:37:35;;;;;;;7.13;5.57;;;10.70;44.60;;;;;;5070300;28;21566;-87
2022/03/10 10:40:05;;;;;;;6.70;6.00;;;10.70;44.00;;;;;;5069572;28;20636;-86
2022/03/10 10:42:33;;;;;;;11.57;5.33;;;10.70;44.40;;;;;;5069856;28;20706;-87
2022/03/10 10:45:01;;;;;;;6.60;5.67;;;10.70;44.00;;;;;;5049515;28;20710;-85
2022/03/10 10:47:28;;;;;;;9.00;5.87;;;10.90;43.30;;;;;;5050246;28;20618;-86
2022/03/10 10:50:02;;;;;;;9.13;5.40;;;11.00;43.50;;;;;;5069133;28;20678;-86
2022/03/10 10:52:40;;;;;;;7.93;6.20;;;11.10;48.90;;;;;;5070315;28;20975;-86
2022/03/10 10:55:11;;;;;;;8.40;4.90;;;11.10;43.80;;;;;;5064521;28;20624;-85
2022/03/10 10:57:40;;;;;;;6.40;5.50;;;11.10;53.80;;;;;;5069505;28;20667;-85
2022/03/10 11:00:12;;;;;;;8.43;6.17;;;11.30;42.60;;;;;;5069068;28;21210;-85
2022/03/10 11:02:44;;;;;;;6.97;6.13;;;11.20;42.60;;;;;;5069665;28;20632;-86
2022/03/10 11:05:14;;;;;;;7.77;4.70;;;11.20;42.70;;;;;;5065703;28;20649;-86
2022/03/10 11:07:42;;;;;;;5.43;4.90;;;11.20;43.20;;;;;;5049157;28;20629;-86
2022/03/10 11:10:12;;;;;;;11.37;4.73;;;11.10;42.50;;;;;;5063113;28;20629;-85
2022/03/10 11:12:41;;;;;;;9.57;4.40;;;11.30;42.70;;;;;;5068913;28;20720;-87
2022/03/10 11:15:10;;;;;;;5.10;3.03;;;11.40;42.10;;;;;;5049835;28;20648;-87
2022/03/10 11:17:38;;;;;;;6.83;3.70;;;11.40;41.00;;;;;;5064537;28;21340;-87
2022/03/10 11:20:12;;;;;;;4.03;3.63;;;11.40;51.70;;;;;;5069310;28;20690;-87
2022/03/10 11:23:09;;;;;;;5.80;3.90;;;11.70;40.30;;;;;;5070211;28;20944;-86
2022/03/10 11:25:46;;;;;;;5.73;4.10;;;11.70;40.60;;;;;;5073502;28;20720;-87
2022/03/10 11:28:30;;;;;;;11.73;4.70;;;11.40;51.80;;;;;;5074173;28;20648;-87
2022/03/10 11:31:09;;;;;;;5.57;4.20;;;11.60;51.10;;;;;;5072279;28;20628;-87
2022/03/10 11:33:40;;;;;;;6.50;5.00;;;11.70;41.10;;;;;;5071541;28;20613;-86
2022/03/10 11:36:28;;;;;;;5.00;3.70;;;11.90;40.30;;;;;;5067052;28;20777;-87
2022/03/10 11:39:07;;;;;;;6.57;4.33;;;11.90;40.40;;;;;;5049046;28;20599;-87
2022/03/10 11:42:00;;;;;;;5.87;4.10;;;12.00;39.80;;;;;;5064941;28;20618;-87
2022/03/10 11:44:47;;;;;;;4.53;3.97;;;12.20;49.90;;;;;;5068551;28;20726;-87
2022/03/10 11:47:22;;;;;;;5.00;3.97;;;12.00;40.50;;;;;;5068324;28;20629;-87
2022/03/10 11:49:56;;;;;;;6.00;3.73;;;12.00;40.10;;;;;;5068710;28;20637;-86
2022/03/10 11:52:42;;;;;;;3.83;3.10;;;11.90;40.20;;;;;;5067310;28;20637;-87
2022/03/10 11:58:44;;;;;;;;;;;;;;;;;;;;;
2022/03/10 12:01:19;;;;;;;4.77;3.43;;;12.30;39.60;;;;;;5049328;28;20962;-86
2022/03/10 12:03:47;;;;;;;5.30;3.80;;;12.00;39.80;;;;;;5066415;28;20625;-87
2022/03/10 12:06:15;;;;;;;6.57;3.50;;;12.00;40.20;;;;;;5067423;28;20661;-87
2022/03/10 12:08:42;;;;;;;4.87;3.33;;;12.00;39.90;;;;;;5067947;28;20629;-87
2022/03/10 12:11:15;;;;;;;3.60;3.30;;;11.90;40.00;;;;;;5068221;28;20687;-88
2022/03/10 12:13:45;;;;;;;4.30;3.90;;;12.10;39.50;;;;;;5055761;28;20636;-87
2022/03/10 12:16:39;;;;;;;5.67;3.37;;;12.20;40.30;;;;;;5068078;28;21203;-87
2022/03/10 12:19:06;;;;;;;4.07;3.30;;;12.00;48.80;;;;;;5058826;28;20682;-87
2022/03/10 12:21:33;;;;;;;4.20;3.60;;;12.10;40.20;;;;;;5067675;28;21175;-87
2022/03/10 12:24:02;;;;;;;5.67;3.60;;;12.10;39.80;;;;;;5068186;28;20686;-88
2022/03/10 12:26:31;;;;;;;4.50;3.53;;;12.20;39.90;;;;;;5067473;28;20715;-87
2022/03/10 12:29:01;;;;;;;3.17;2.57;;;12.30;39.80;;;;;;5067917;28;20632;-86
2022/03/10 12:31:32;;;;;;;3.17;2.87;;;12.40;39.50;;;;;;5068391;28;20621;-87
2022/03/10 12:34:01;;;;;;;5.70;3.40;;;12.30;39.20;;;;;;5067421;28;20613;-86
2022/03/10 12:36:33;;;;;;;6.80;3.13;;;12.50;38.30;;;;;;5067680;28;20660;-86
2022/03/10 12:39:02;;;;;;;5.43;3.97;;;12.50;38.20;;;;;;5068038;28;20629;-87
2022/03/10 12:41:31;;;;;;;9.10;3.10;;;12.30;38.80;;;;;;5067346;28;20716;-87
2022/03/10 12:44:01;;;;;;;4.17;3.37;;;12.40;39.10;;;;;;5066285;28;20751;-87
2022/03/10 12:46:29;;;;;;;4.03;2.77;;;12.40;38.00;;;;;;5048195;28;20737;-87
2022/03/10 12:49:04;;;;;;;5.10;3.30;;;12.30;37.80;;;;;;5053460;28;20716;-88
2022/03/10 12:51:35;;;;;;;6.10;3.50;;;12.30;37.80;;;;;;5067617;28;20618;-87
2022/03/10 12:54:03;;;;;;;3.50;2.87;;;12.30;38.30;;;;;;5067424;28;20698;-87
2022/03/10 12:56:41;;;;;;;5.30;3.53;;;12.40;37.90;;;;;;5068217;28;20659;-88
2022/03/10 12:59:10;;;;;;;5.80;4.10;;;12.50;38.00;;;;;;5068039;28;20969;-88
2022/03/10 13:01:37;;;;;;;5.97;4.10;;;12.60;38.50;;;;;;5067750;28;20655;-88
2022/03/10 13:04:11;;;;;;;5.43;4.10;;;12.60;38.20;;;;;;5067155;28;20651;-88
2022/03/10 13:06:40;;;;;;;6.43;4.10;;;12.40;38.30;;;;;;5067884;28;20665;-88
2022/03/10 13:09:07;;;;;;;5.20;4.17;;;12.40;38.20;;;;;;5067517;28;20628;-88
2022/03/10 13:11:37;;;;;;;7.90;5.87;;;12.40;45.30;;;;;;5068152;28;20678;-88
2022/03/10 13:14:07;;;;;;;5.40;4.40;;;12.60;38.40;;;;;;5067372;28;20617;-88
2022/03/10 13:16:37;;;;;;;11.60;4.20;;;12.50;37.40;;;;;;5067798;28;20609;-89
2022/03/10 13:19:06;;;;;;;6.90;4.43;;;12.50;37.90;;;;;;5067281;28;20625;-87
2022/03/10 13:21:33;;;;;;;4.37;3.97;;;12.60;38.00;;;;;;5067979;28;20617;-88